»·PEaware :: N733TR KBLI-C72

N733TR :: KBLI-C72

FLIGHT INFORMATION

Flight Status: Arrived
Operator: Privately registered:
United States
More flights under this callsign
Pilot: Jonathan B. (787)
Aircraft: Unknown
(LEG2)
More flights by this aircraft type
Origin: KBLI Bellingham Intl
United States
Destination: C72 Cross Winds
United States
More flights between these airports :: More routes between these airports
Route:
File this flight plan on PilotEdge
Remarks: wa alphabet
Altitude:
(Current/Filed)
9,500ft
Speed:
(Current/Filed)
180kts
Departed: 31-Jul-20 11:56 AM
Arrived: 31-Jul-20 12:57 PM
Distance/Time
Traveled:
205nm/1:01
Distance/Time
To Go:
Arrived

Flight Plot

Page will automatically refresh every two minutes.

Flight plan parsing failed; only flown route is shown


Map Options




Map Legend


Flown Route
Filed Route
Departure Airport
Arrival Airport
Navaid (VOR, NDB)
Fix

Horizontal Profiles

Position Reports

Time Latitude Longitude Heading Altitude Ground
Speed
31-Jul-20 11:46 48.792406 -122.533589 53 171ft 0kts
31-Jul-20 11:47 48.792406 -122.533589 53 171ft 0kts
31-Jul-20 11:48 48.792406 -122.533589 53 171ft 0kts
31-Jul-20 11:49 48.792406 -122.533589 53 171ft 0kts
31-Jul-20 11:50 48.792406 -122.533589 53 171ft 0kts
31-Jul-20 11:51 48.792653 -122.533641 320 171ft 6kts
31-Jul-20 11:52 48.797275 -122.535846 1 171ft 19kts
31-Jul-20 11:53 48.801655 -122.535843 312 171ft 9kts
31-Jul-20 11:54 48.801532 -122.537504 204 171ft 7kts
31-Jul-20 11:55 48.776064 -122.526170 106 2177ft 143kts
31-Jul-20 11:56 48.788801 -122.464886 82 4665ft 148kts
31-Jul-20 11:57 48.794423 -122.407641 95 6959ft 150kts
31-Jul-20 11:58 48.780175 -122.351001 110 9267ft 135kts
31-Jul-20 11:59 48.763295 -122.283024 115 9802ft 205kts
31-Jul-20 12:00 48.743559 -122.205475 118 11512ft 177kts
31-Jul-20 12:01 48.725094 -122.123315 110 11522ft 218kts
31-Jul-20 12:02 48.706209 -122.033574 110 11528ft 226kts
31-Jul-20 12:03 48.694209 -121.941131 77 11533ft 237kts
31-Jul-20 12:04 48.694252 -121.844753 104 11527ft 230kts
31-Jul-20 12:05 48.680953 -121.749519 105 11525ft 231kts
31-Jul-20 12:06 48.667067 -121.654365 105 11523ft 232kts
31-Jul-20 12:07 48.652997 -121.558829 105 11500ft 232kts
31-Jul-20 12:08 48.638945 -121.463943 105 11417ft 233kts
31-Jul-20 12:09 48.625966 -121.376594 105 12612ft 196kts
31-Jul-20 12:10 48.614176 -121.297908 106 13457ft 202kts
31-Jul-20 12:11 48.601015 -121.210584 106 13457ft 221kts
31-Jul-20 12:12 48.587074 -121.118509 105 13455ft 227kts
31-Jul-20 12:13 48.572838 -121.025004 105 13454ft 229kts
31-Jul-20 12:14 48.558397 -120.930698 104 13462ft 231kts
31-Jul-20 12:15 48.543796 -120.835910 104 13504ft 231kts
31-Jul-20 12:16 48.529133 -120.741297 104 13547ft 231kts
31-Jul-20 12:17 48.514307 -120.646194 104 13541ft 233kts
31-Jul-20 12:18 48.499267 -120.550281 104 13501ft 235kts
31-Jul-20 12:19 48.484037 -120.453718 104 13457ft 235kts
31-Jul-20 12:20 48.468759 -120.357423 104 13451ft 235kts
31-Jul-20 12:21 48.453552 -120.262134 105 13436ft 236kts
31-Jul-20 12:22 48.438118 -120.165981 105 13436ft 235kts
31-Jul-20 12:23 48.422605 -120.069897 105 13435ft 235kts
31-Jul-20 12:24 48.407020 -119.973917 105 13435ft 235kts
31-Jul-20 12:26 48.391494 -119.878845 105 13435ft 232kts
31-Jul-20 12:27 48.376029 -119.784679 105 13435ft 231kts
31-Jul-20 12:28 48.360557 -119.690993 105 13434ft 231kts
31-Jul-20 12:29 48.344975 -119.597153 105 13434ft 230kts
31-Jul-20 12:30 48.329409 -119.503925 105 13434ft 230kts
31-Jul-20 12:31 48.313687 -119.410270 105 13434ft 230kts
31-Jul-20 12:32 48.298130 -119.318235 105 12846ft 229kts
31-Jul-20 12:33 48.282466 -119.225924 105 12145ft 230kts
31-Jul-20 12:34 48.266229 -119.130736 105 11446ft 238kts
31-Jul-20 12:35 48.249375 -119.032461 104 10566ft 247kts
31-Jul-20 12:36 48.232156 -118.932641 104 9667ft 247kts
31-Jul-20 12:37 48.214715 -118.832114 104 8766ft 252kts
31-Jul-20 12:38 48.196976 -118.730505 104 7862ft 251kts
31-Jul-20 12:39 48.179532 -118.631106 103 7429ft 238kts
31-Jul-20 12:39 48.165574 -118.551959 103 7431ft 232kts
31-Jul-20 12:41 48.146359 -118.443555 104 7464ft 230kts
31-Jul-20 12:42 48.129847 -118.350959 105 7490ft 230kts
31-Jul-20 12:43 48.113579 -118.260209 106 7504ft 231kts
31-Jul-20 12:43 48.099489 -118.181906 106 7211ft 238kts
31-Jul-20 12:45 48.079143 -118.069509 105 6062ft 242kts
31-Jul-20 12:46 48.061298 -117.971484 104 4912ft 246kts
31-Jul-20 12:46 48.046231 -117.889143 103 3955ft 246kts
31-Jul-20 12:47 48.028348 -117.791886 103 3215ft 232kts
31-Jul-20 12:49 48.018257 -117.686904 71 3771ft 210kts
31-Jul-20 12:49 48.003780 -117.633019 138 4430ft 163kts
31-Jul-20 12:50 47.987845 -117.581442 94 3433ft 126kts
31-Jul-20 12:51 47.978172 -117.547279 173 3091ft 125kts
31-Jul-20 12:52 47.964795 -117.575852 318 3326ft 132kts
31-Jul-20 12:53 47.978747 -117.544579 92 2851ft 120kts
31-Jul-20 12:54 47.975361 -117.500032 123 2876ft 111kts
31-Jul-20 12:55 47.975165 -117.523746 333 2194ft 86kts
31-Jul-20 12:56 47.980472 -117.529217 250 2151ft 0kts

Navigation Log

Ident Type
Flight plan parsing failed, navigation log unavailable